sensor_id;sensor_type;location;lat;lon;timestamp;pressure;altitude;pressure_sealevel;temperature;humidity
47556;BME280;33291;46.222;26.460;2024-03-29T00:01:48;95782.63;;;6.21;89.22
47556;BME280;33291;46.222;26.460;2024-03-29T00:04:13;95775.94;;;6.19;89.36
47556;BME280;33291;46.222;26.460;2024-03-29T00:06:39;95789.19;;;6.26;89.09
47556;BME280;33291;46.222;26.460;2024-03-29T00:09:05;95791.78;;;6.26;89.07
47556;BME280;33291;46.222;26.460;2024-03-29T00:11:30;95782.38;;;6.25;89.25
47556;BME280;33291;46.222;26.460;2024-03-29T00:13:57;95786.34;;;6.29;88.87
47556;BME280;33291;46.222;26.460;2024-03-29T00:16:23;95784.97;;;6.25;89.35
47556;BME280;33291;46.222;26.460;2024-03-29T00:18:51;95772.41;;;6.20;88.97
47556;BME280;33291;46.222;26.460;2024-03-29T00:21:17;95783.31;;;6.23;88.58
47556;BME280;33291;46.222;26.460;2024-03-29T00:23:43;95792.72;;;6.25;89.02
47556;BME280;33291;46.222;26.460;2024-03-29T00:26:13;95797.44;;;6.19;89.19
47556;BME280;33291;46.222;26.460;2024-03-29T00:28:39;95787.09;;;6.19;89.14
47556;BME280;33291;46.222;26.460;2024-03-29T00:31:04;95792.03;;;6.22;89.40
47556;BME280;33291;46.222;26.460;2024-03-29T00:33:30;95778.41;;;6.20;89.25
47556;BME280;33291;46.222;26.460;2024-03-29T00:35:56;95778.50;;;6.09;90.15
47556;BME280;33291;46.222;26.460;2024-03-29T00:38:22;95787.59;;;6.03;90.94
47556;BME280;33291;46.222;26.460;2024-03-29T00:40:47;95786.78;;;6.03;91.03
47556;BME280;33291;46.222;26.460;2024-03-29T00:43:13;95772.06;;;6.03;91.04
47556;BME280;33291;46.222;26.460;2024-03-29T00:45:40;95783.28;;;6.14;90.62
47556;BME280;33291;46.222;26.460;2024-03-29T00:48:06;95782.19;;;6.16;90.07
47556;BME280;33291;46.222;26.460;2024-03-29T00:50:31;95759.44;;;6.10;89.85
47556;BME280;33291;46.222;26.460;2024-03-29T00:52:57;95781.25;;;6.17;90.25
47556;BME280;33291;46.222;26.460;2024-03-29T00:55:23;95782.03;;;6.08;91.14
47556;BME280;33291;46.222;26.460;2024-03-29T00:57:48;95781.59;;;6.03;91.59
47556;BME280;33291;46.222;26.460;2024-03-29T01:00:14;95784.19;;;6.03;91.72
47556;BME280;33291;46.222;26.460;2024-03-29T01:02:40;95773.00;;;6.02;91.51
47556;BME280;33291;46.222;26.460;2024-03-29T01:05:06;95771.25;;;6.03;91.38
47556;BME280;33291;46.222;26.460;2024-03-29T01:07:31;95779.44;;;6.08;91.75
47556;BME280;33291;46.222;26.460;2024-03-29T01:09:57;95759.66;;;5.97;91.62
47556;BME280;33291;46.222;26.460;2024-03-29T01:12:23;95777.09;;;6.05;91.98
47556;BME280;33291;46.222;26.460;2024-03-29T01:14:48;95779.81;;;6.03;92.08
47556;BME280;33291;46.222;26.460;2024-03-29T01:17:14;95780.22;;;5.99;92.26
47556;BME280;33291;46.222;26.460;2024-03-29T01:19:39;95790.03;;;6.05;92.33
47556;BME280;33291;46.222;26.460;2024-03-29T01:22:05;95761.66;;;5.94;92.67
47556;BME280;33291;46.222;26.460;2024-03-29T01:24:31;95760.00;;;5.93;93.08
47556;BME280;33291;46.222;26.460;2024-03-29T01:26:56;95770.69;;;5.99;93.23
47556;BME280;33291;46.222;26.460;2024-03-29T01:29:22;95732.50;;;5.92;93.54
47556;BME280;33291;46.222;26.460;2024-03-29T01:31:48;95753.84;;;6.05;92.80
47556;BME280;33291;46.222;26.460;2024-03-29T01:34:14;95748.13;;;6.01;92.87
47556;BME280;33291;46.222;26.460;2024-03-29T01:36:39;95749.88;;;6.01;93.06
47556;BME280;33291;46.222;26.460;2024-03-29T01:39:05;95755.88;;;6.01;93.48
47556;BME280;33291;46.222;26.460;2024-03-29T01:41:33;95762.78;;;6.01;93.62
47556;BME280;33291;46.222;26.460;2024-03-29T01:43:58;95764.03;;;5.97;93.99
47556;BME280;33291;46.222;26.460;2024-03-29T01:46:24;95760.56;;;5.96;93.81
47556;BME280;33291;46.222;26.460;2024-03-29T01:48:51;95762.25;;;5.97;93.57
47556;BME280;33291;46.222;26.460;2024-03-29T01:51:18;95763.06;;;5.98;93.38
47556;BME280;33291;46.222;26.460;2024-03-29T01:53:46;95758.09;;;5.95;93.51
47556;BME280;33291;46.222;26.460;2024-03-29T01:56:14;95773.50;;;5.96;93.84
47556;BME280;33291;46.222;26.460;2024-03-29T01:58:40;95761.53;;;5.95;93.52
47556;BME280;33291;46.222;26.460;2024-03-29T02:01:07;95769.19;;;5.97;93.31
47556;BME280;33291;46.222;26.460;2024-03-29T02:03:33;95751.56;;;5.91;94.19
47556;BME280;33291;46.222;26.460;2024-03-29T02:05:59;95751.94;;;5.86;94.85
47556;BME280;33291;46.222;26.460;2024-03-29T02:08:27;95753.72;;;5.85;94.60
47556;BME280;33291;46.222;26.460;2024-03-29T02:10:53;95765.44;;;5.90;94.46
47556;BME280;33291;46.222;26.460;2024-03-29T02:13:19;95767.09;;;5.91;94.68
47556;BME280;33291;46.222;26.460;2024-03-29T02:15:45;95771.53;;;5.88;94.90
47556;BME280;33291;46.222;26.460;2024-03-29T02:18:10;95758.31;;;5.82;94.94
47556;BME280;33291;46.222;26.460;2024-03-29T02:20:36;95783.41;;;5.91;94.32
47556;BME280;33291;46.222;26.460;2024-03-29T02:23:15;95767.91;;;5.91;94.43
47556;BME280;33291;46.222;26.460;2024-03-29T02:25:41;95758.06;;;5.85;94.64
47556;BME280;33291;46.222;26.460;2024-03-29T02:28:08;95758.88;;;5.85;95.27
47556;BME280;33291;46.222;26.460;2024-03-29T02:30:34;95772.94;;;5.93;95.15
47556;BME280;33291;46.222;26.460;2024-03-29T02:33:00;95781.25;;;5.96;94.82
47556;BME280;33291;46.222;26.460;2024-03-29T02:35:27;95780.22;;;5.99;94.58
47556;BME280;33291;46.222;26.460;2024-03-29T02:37:52;95783.72;;;5.98;94.42
47556;BME280;33291;46.222;26.460;2024-03-29T02:40:19;95777.38;;;6.02;94.78
47556;BME280;33291;46.222;26.460;2024-03-29T02:42:45;95779.81;;;6.03;94.41
47556;BME280;33291;46.222;26.460;2024-03-29T02:45:10;95774.25;;;6.08;94.41
47556;BME280;33291;46.222;26.460;2024-03-29T02:47:36;95781.88;;;6.10;94.13
47556;BME280;33291;46.222;26.460;2024-03-29T02:50:01;95775.06;;;6.09;93.97
47556;BME280;33291;46.222;26.460;2024-03-29T02:52:28;95771.00;;;6.06;94.23
47556;BME280;33291;46.222;26.460;2024-03-29T02:54:54;95766.09;;;6.03;94.30
47556;BME280;33291;46.222;26.460;2024-03-29T02:57:20;95757.06;;;5.97;94.30
47556;BME280;33291;46.222;26.460;2024-03-29T02:59:45;95757.63;;;6.01;94.33
47556;BME280;33291;46.222;26.460;2024-03-29T03:02:11;95748.13;;;6.01;93.63
47556;BME280;33291;46.222;26.460;2024-03-29T03:04:36;95754.78;;;6.04;93.70
47556;BME280;33291;46.222;26.460;2024-03-29T03:07:02;95757.22;;;6.05;93.71
47556;BME280;33291;46.222;26.460;2024-03-29T03:09:46;95752.78;;;6.08;93.41
47556;BME280;33291;46.222;26.460;2024-03-29T03:12:31;95754.38;;;6.09;93.02
47556;BME280;33291;46.222;26.460;2024-03-29T03:14:57;95758.75;;;6.08;92.95
47556;BME280;33291;46.222;26.460;2024-03-29T03:17:25;95765.69;;;6.08;93.09
47556;BME280;33291;46.222;26.460;2024-03-29T03:19:52;95778.63;;;6.08;93.00
47556;BME280;33291;46.222;26.460;2024-03-29T03:22:18;95788.25;;;6.05;93.08
47556;BME280;33291;46.222;26.460;2024-03-29T03:24:43;95779.69;;;6.05;93.15
47556;BME280;33291;46.222;26.460;2024-03-29T03:27:09;95790.03;;;6.05;93.54
47556;BME280;33291;46.222;26.460;2024-03-29T03:29:35;95783.41;;;5.91;94.01
47556;BME280;33291;46.222;26.460;2024-03-29T03:32:00;95789.88;;;5.97;93.86
47556;BME280;33291;46.222;26.460;2024-03-29T03:34:26;95773.38;;;5.98;94.11
47556;BME280;33291;46.222;26.460;2024-03-29T03:36:52;95809.47;;;5.99;94.30
47556;BME280;33291;46.222;26.460;2024-03-29T03:39:17;95782.53;;;6.02;94.34
47556;BME280;33291;46.222;26.460;2024-03-29T03:41:43;95802.03;;;6.06;94.26
47556;BME280;33291;46.222;26.460;2024-03-29T03:44:09;95778.78;;;5.95;93.99
47556;BME280;33291;46.222;26.460;2024-03-29T03:46:34;95807.06;;;6.08;94.07
47556;BME280;33291;46.222;26.460;2024-03-29T03:49:00;95807.31;;;6.04;94.30
47556;BME280;33291;46.222;26.460;2024-03-29T03:51:25;95804.75;;;6.04;93.78
47556;BME280;33291;46.222;26.460;2024-03-29T03:53:51;95798.47;;;6.07;93.70
47556;BME280;33291;46.222;26.460;2024-03-29T03:56:17;95771.78;;;5.97;93.59
47556;BME280;33291;46.222;26.460;2024-03-29T03:58:44;95807.72;;;6.00;94.15
47556;BME280;33291;46.222;26.460;2024-03-29T04:01:10;95793.81;;;6.01;94.27
47556;BME280;33291;46.222;26.460;2024-03-29T04:03:36;95814.16;;;5.94;94.29
47556;BME280;33291;46.222;26.460;2024-03-29T04:06:05;95818.53;;;5.94;94.55
47556;BME280;33291;46.222;26.460;2024-03-29T04:08:31;95807.31;;;5.83;93.96
47556;BME280;33291;46.222;26.460;2024-03-29T04:10:56;95837.31;;;5.96;94.80
47556;BME280;33291;46.222;26.460;2024-03-29T04:13:22;95837.94;;;5.88;94.65
47556;BME280;33291;46.222;26.460;2024-03-29T04:15:48;95841.19;;;6.01;94.56
47556;BME280;33291;46.222;26.460;2024-03-29T04:18:13;95862.13;;;5.98;94.85
47556;BME280;33291;46.222;26.460;2024-03-29T04:20:39;95861.75;;;6.03;94.27
47556;BME280;33291;46.222;26.460;2024-03-29T04:23:05;95857.00;;;6.08;94.49
47556;BME280;33291;46.222;26.460;2024-03-29T04:25:31;95837.63;;;6.02;94.82
47556;BME280;33291;46.222;26.460;2024-03-29T04:27:57;95856.50;;;6.14;94.88
47556;BME280;33291;46.222;26.460;2024-03-29T04:30:22;95851.59;;;6.11;94.85
47556;BME280;33291;46.222;26.460;2024-03-29T04:32:48;95854.41;;;6.08;95.02
47556;BME280;33291;46.222;26.460;2024-03-29T04:35:13;95880.19;;;6.19;94.55
47556;BME280;33291;46.222;26.460;2024-03-29T04:37:39;95873.16;;;6.21;94.54
47556;BME280;33291;46.222;26.460;2024-03-29T04:40:05;95845.38;;;6.23;94.37
47556;BME280;33291;46.222;26.460;2024-03-29T04:42:31;95864.50;;;6.32;94.14
47556;BME280;33291;46.222;26.460;2024-03-29T04:44:57;95864.66;;;6.40;93.72
47556;BME280;33291;46.222;26.460;2024-03-29T04:47:23;95861.69;;;6.45;93.72
47556;BME280;33291;46.222;26.460;2024-03-29T04:49:48;95862.13;;;6.50;93.24
47556;BME280;33291;46.222;26.460;2024-03-29T04:52:14;95859.69;;;6.49;92.81
47556;BME280;33291;46.222;26.460;2024-03-29T04:54:40;95853.19;;;6.64;92.66
47556;BME280;33291;46.222;26.460;2024-03-29T04:57:05;95847.50;;;6.70;92.38
47556;BME280;33291;46.222;26.460;2024-03-29T04:59:34;95868.00;;;6.83;91.18
47556;BME280;33291;46.222;26.460;2024-03-29T05:01:59;95854.25;;;6.92;90.94
47556;BME280;33291;46.222;26.460;2024-03-29T05:04:25;95868.34;;;7.09;88.99
47556;BME280;33291;46.222;26.460;2024-03-29T05:06:52;95842.72;;;7.16;88.27
47556;BME280;33291;46.222;26.460;2024-03-29T05:09:18;95854.47;;;7.50;86.42
47556;BME280;33291;46.222;26.460;2024-03-29T05:11:44;95842.22;;;7.61;83.87
47556;BME280;33291;46.222;26.460;2024-03-29T05:14:11;95862.81;;;8.02;82.56
47556;BME280;33291;46.222;26.460;2024-03-29T05:16:40;95839.03;;;8.07;81.53
47556;BME280;33291;46.222;26.460;2024-03-29T05:19:05;95859.31;;;8.41;80.96
47556;BME280;33291;46.222;26.460;2024-03-29T05:21:31;95859.56;;;8.95;76.06
47556;BME280;33291;46.222;26.460;2024-03-29T05:23:56;95878.69;;;9.67;71.08
47556;BME280;33291;46.222;26.460;2024-03-29T05:26:22;95861.09;;;10.49;67.34
47556;BME280;33291;46.222;26.460;2024-03-29T05:28:48;95872.75;;;10.98;63.91
47556;BME280;33291;46.222;26.460;2024-03-29T05:31:14;95867.03;;;11.45;62.21
47556;BME280;33291;46.222;26.460;2024-03-29T05:33:41;95880.75;;;11.72;60.69
47556;BME280;33291;46.222;26.460;2024-03-29T05:36:07;95853.56;;;11.91;60.28
47556;BME280;33291;46.222;26.460;2024-03-29T05:38:34;95896.97;;;12.25;59.36
47556;BME280;33291;46.222;26.460;2024-03-29T05:40:59;95884.56;;;12.35;59.38
47556;BME280;33291;46.222;26.460;2024-03-29T05:43:25;95906.75;;;12.48;58.96
47556;BME280;33291;46.222;26.460;2024-03-29T05:45:53;95916.06;;;12.50;58.85
47556;BME280;33291;46.222;26.460;2024-03-29T05:48:19;95898.41;;;12.52;58.65
47556;BME280;33291;46.222;26.460;2024-03-29T05:50:45;95868.38;;;12.56;58.15
47556;BME280;33291;46.222;26.460;2024-03-29T05:53:11;95885.34;;;12.60;58.29
47556;BME280;33291;46.222;26.460;2024-03-29T05:55:36;95892.19;;;12.61;57.88
47556;BME280;33291;46.222;26.460;2024-03-29T05:58:02;95878.97;;;12.63;57.67
47556;BME280;33291;46.222;26.460;2024-03-29T06:00:28;95901.34;;;12.74;56.93
47556;BME280;33291;46.222;26.460;2024-03-29T06:02:54;95906.22;;;12.77;57.39
47556;BME280;33291;46.222;26.460;2024-03-29T06:05:20;95891.66;;;12.91;55.90
47556;BME280;33291;46.222;26.460;2024-03-29T06:07:46;95926.91;;;12.95;56.10
47556;BME280;33291;46.222;26.460;2024-03-29T06:10:11;95900.75;;;12.95;56.49
47556;BME280;33291;46.222;26.460;2024-03-29T06:12:37;95889.63;;;13.09;55.51
47556;BME280;33291;46.222;26.460;2024-03-29T06:15:05;95872.28;;;13.08;55.55
47556;BME280;33291;46.222;26.460;2024-03-29T06:17:49;95882.22;;;13.21;54.67
47556;BME280;33291;46.222;26.460;2024-03-29T06:20:15;95895.44;;;13.36;54.55
47556;BME280;33291;46.222;26.460;2024-03-29T06:22:41;95895.50;;;13.51;53.94
47556;BME280;33291;46.222;26.460;2024-03-29T06:25:07;95880.41;;;13.61;54.61
47556;BME280;33291;46.222;26.460;2024-03-29T06:27:35;95864.06;;;13.59;53.25
47556;BME280;33291;46.222;26.460;2024-03-29T06:30:02;95887.09;;;13.87;52.48
47556;BME280;33291;46.222;26.460;2024-03-29T06:32:29;95864.75;;;13.99;51.73
47556;BME280;33291;46.222;26.460;2024-03-29T06:34:54;95860.44;;;14.07;52.12
47556;BME280;33291;46.222;26.460;2024-03-29T06:37:20;95880.78;;;14.19;51.61
47556;BME280;33291;46.222;26.460;2024-03-29T06:39:48;95877.78;;;14.31;51.30
47556;BME280;33291;46.222;26.460;2024-03-29T06:42:14;95866.03;;;14.42;51.71
47556;BME280;33291;46.222;26.460;2024-03-29T06:44:39;95878.19;;;14.57;51.06
47556;BME280;33291;46.222;26.460;2024-03-29T06:47:06;95870.25;;;14.66;48.83
47556;BME280;33291;46.222;26.460;2024-03-29T06:49:32;95886.91;;;14.73;49.71
47556;BME280;33291;46.222;26.460;2024-03-29T06:51:58;95898.03;;;14.75;49.46
47556;BME280;33291;46.222;26.460;2024-03-29T06:54:30;95904.34;;;14.81;49.71
47556;BME280;33291;46.222;26.460;2024-03-29T06:56:56;95889.25;;;14.83;49.37
47556;BME280;33291;46.222;26.460;2024-03-29T06:59:22;95915.22;;;14.92;49.98
47556;BME280;33291;46.222;26.460;2024-03-29T07:01:48;95902.19;;;14.99;49.21
47556;BME280;33291;46.222;26.460;2024-03-29T07:04:21;95917.28;;;15.12;49.14
47556;BME280;33291;46.222;26.460;2024-03-29T07:06:47;95910.31;;;15.19;48.12
47556;BME280;33291;46.222;26.460;2024-03-29T07:09:15;95886.72;;;15.19;47.95
47556;BME280;33291;46.222;26.460;2024-03-29T07:11:41;95921.72;;;15.41;47.98
47556;BME280;33291;46.222;26.460;2024-03-29T07:14:07;95897.91;;;15.43;46.68
47556;BME280;33291;46.222;26.460;2024-03-29T07:16:32;95910.88;;;15.66;46.66
47556;BME280;33291;46.222;26.460;2024-03-29T07:18:58;95904.69;;;15.74;46.91
47556;BME280;33291;46.222;26.460;2024-03-29T07:21:24;95923.03;;;15.82;45.87
47556;BME280;33291;46.222;26.460;2024-03-29T07:23:50;95912.13;;;15.85;46.23
47556;BME280;33291;46.222;26.460;2024-03-29T07:26:16;95903.00;;;16.03;43.49
47556;BME280;33291;46.222;26.460;2024-03-29T07:28:41;95926.09;;;16.07;44.32
47556;BME280;33291;46.222;26.460;2024-03-29T07:31:07;95975.38;;;16.05;43.72
47556;BME280;33291;46.222;26.460;2024-03-29T07:33:33;95938.69;;;15.97;41.73
47556;BME280;33291;46.222;26.460;2024-03-29T07:35:59;95910.28;;;16.01;43.50
47556;BME280;33291;46.222;26.460;2024-03-29T07:38:25;95941.09;;;16.13;42.20
47556;BME280;33291;46.222;26.460;2024-03-29T07:40:51;95934.09;;;16.21;41.67
47556;BME280;33291;46.222;26.460;2024-03-29T07:43:21;95923.41;;;16.22;41.77
47556;BME280;33291;46.222;26.460;2024-03-29T07:45:47;95930.34;;;16.30;41.12
47556;BME280;33291;46.222;26.460;2024-03-29T07:48:14;95950.22;;;16.39;40.31
47556;BME280;33291;46.222;26.460;2024-03-29T07:50:41;95968.53;;;16.47;40.48
47556;BME280;33291;46.222;26.460;2024-03-29T07:53:08;95984.09;;;16.49;39.55
47556;BME280;33291;46.222;26.460;2024-03-29T07:55:40;95980.63;;;16.48;39.91
47556;BME280;33291;46.222;26.460;2024-03-29T07:58:07;95993.91;;;16.40;40.52
47556;BME280;33291;46.222;26.460;2024-03-29T08:00:34;96002.44;;;16.42;40.64
47556;BME280;33291;46.222;26.460;2024-03-29T08:03:00;95985.75;;;16.35;40.88
47556;BME280;33291;46.222;26.460;2024-03-29T08:05:29;96019.88;;;16.28;38.99
47556;BME280;33291;46.222;26.460;2024-03-29T08:07:55;95985.34;;;16.31;38.65
47556;BME280;33291;46.222;26.460;2024-03-29T08:10:21;95999.94;;;16.34;37.55
47556;BME280;33291;46.222;26.460;2024-03-29T08:12:47;95993.72;;;16.42;38.10
47556;BME280;33291;46.222;26.460;2024-03-29T08:15:16;96016.63;;;16.48;38.45
47556;BME280;33291;46.222;26.460;2024-03-29T08:17:44;96007.69;;;16.42;38.13
47556;BME280;33291;46.222;26.460;2024-03-29T08:20:10;96007.44;;;16.37;38.33
47556;BME280;33291;46.222;26.460;2024-03-29T08:22:36;95966.28;;;16.44;37.95
47556;BME280;33291;46.222;26.460;2024-03-29T08:25:02;96025.09;;;16.43;36.64
47556;BME280;33291;46.222;26.460;2024-03-29T08:27:27;96023.16;;;16.52;36.11
47556;BME280;33291;46.222;26.460;2024-03-29T08:29:53;96032.84;;;16.51;36.95
47556;BME280;33291;46.222;26.460;2024-03-29T08:32:19;96002.97;;;16.59;36.74
47556;BME280;33291;46.222;26.460;2024-03-29T08:34:45;96010.50;;;16.62;36.78
47556;BME280;33291;46.222;26.460;2024-03-29T08:37:10;96013.56;;;16.66;36.51
47556;BME280;33291;46.222;26.460;2024-03-29T08:39:36;96058.03;;;16.82;35.89
47556;BME280;33291;46.222;26.460;2024-03-29T08:42:04;96052.13;;;16.80;36.09
47556;BME280;33291;46.222;26.460;2024-03-29T08:44:33;96037.59;;;16.84;35.35
47556;BME280;33291;46.222;26.460;2024-03-29T08:46:59;96084.53;;;16.81;35.37
47556;BME280;33291;46.222;26.460;2024-03-29T08:49:28;96061.84;;;16.80;35.68
47556;BME280;33291;46.222;26.460;2024-03-29T08:51:54;96111.56;;;16.75;35.75
47556;BME280;33291;46.222;26.460;2024-03-29T08:54:20;96093.63;;;16.63;36.13
47556;BME280;33291;46.222;26.460;2024-03-29T08:56:46;96101.72;;;16.62;36.57
47556;BME280;33291;46.222;26.460;2024-03-29T08:59:11;96137.25;;;16.58;36.20
47556;BME280;33291;46.222;26.460;2024-03-29T09:01:44;96136.38;;;16.50;34.44
47556;BME280;33291;46.222;26.460;2024-03-29T09:04:10;96138.91;;;16.59;34.21
47556;BME280;33291;46.222;26.460;2024-03-29T09:06:39;96129.19;;;16.59;33.10
47556;BME280;33291;46.222;26.460;2024-03-29T09:09:06;96137.06;;;16.59;33.05
47556;BME280;33291;46.222;26.460;2024-03-29T09:11:32;96169.13;;;16.84;30.81
47556;BME280;33291;46.222;26.460;2024-03-29T09:13:58;96148.44;;;16.81;30.89
47556;BME280;33291;46.222;26.460;2024-03-29T09:16:27;96155.88;;;16.93;30.97
47556;BME280;33291;46.222;26.460;2024-03-29T09:18:55;96123.88;;;16.89;29.53
47556;BME280;33291;46.222;26.460;2024-03-29T09:21:21;96144.34;;;17.15;29.12
47556;BME280;33291;46.222;26.460;2024-03-29T09:23:46;96161.41;;;17.19;26.06
47556;BME280;33291;46.222;26.460;2024-03-29T09:26:14;96159.06;;;17.31;26.67
47556;BME280;33291;46.222;26.460;2024-03-29T09:28:40;96169.22;;;17.34;26.37
47556;BME280;33291;46.222;26.460;2024-03-29T09:31:06;96172.53;;;17.43;26.90
47556;BME280;33291;46.222;26.460;2024-03-29T09:33:32;96181.09;;;17.52;27.18
47556;BME280;33291;46.222;26.460;2024-03-29T09:35:58;96169.88;;;17.65;27.37
47556;BME280;33291;46.222;26.460;2024-03-29T09:38:27;96182.50;;;17.76;26.09
47556;BME280;33291;46.222;26.460;2024-03-29T09:43:26;96174.31;;;17.64;26.57
47556;BME280;33291;46.222;26.460;2024-03-29T09:45:52;96219.28;;;17.63;25.36
47556;BME280;33291;46.222;26.460;2024-03-29T09:48:21;96190.25;;;17.56;24.85
47556;BME280;33291;46.222;26.460;2024-03-29T09:50:48;96182.56;;;17.54;24.38
47556;BME280;33291;46.222;26.460;2024-03-29T09:53:15;96194.06;;;17.53;23.84
47556;BME280;33291;46.222;26.460;2024-03-29T09:55:42;96193.66;;;17.50;23.97
47556;BME280;33291;46.222;26.460;2024-03-29T09:58:08;96219.06;;;17.36;24.75
47556;BME280;33291;46.222;26.460;2024-03-29T10:00:33;96194.78;;;17.40;23.47
47556;BME280;33291;46.222;26.460;2024-03-29T10:02:59;96178.47;;;17.52;23.78
47556;BME280;33291;46.222;26.460;2024-03-29T10:05:26;96204.88;;;17.58;23.42
47556;BME280;33291;46.222;26.460;2024-03-29T10:07:55;96186.44;;;17.58;22.90
47556;BME280;33291;46.222;26.460;2024-03-29T10:10:21;96222.47;;;17.58;23.59
47556;BME280;33291;46.222;26.460;2024-03-29T10:12:47;96198.06;;;17.71;23.61
47556;BME280;33291;46.222;26.460;2024-03-29T10:15:13;96186.06;;;17.62;22.74
47556;BME280;33291;46.222;26.460;2024-03-29T10:17:49;96215.75;;;17.77;23.16
47556;BME280;33291;46.222;26.460;2024-03-29T10:20:19;96215.78;;;17.84;23.18
47556;BME280;33291;46.222;26.460;2024-03-29T10:22:45;96225.75;;;17.88;23.53
47556;BME280;33291;46.222;26.460;2024-03-29T10:25:15;96221.44;;;18.02;23.73
47556;BME280;33291;46.222;26.460;2024-03-29T10:27:42;96218.66;;;18.10;23.32
47556;BME280;33291;46.222;26.460;2024-03-29T10:30:08;96192.88;;;18.06;22.14
47556;BME280;33291;46.222;26.460;2024-03-29T10:32:37;96214.34;;;18.03;22.20
47556;BME280;33291;46.222;26.460;2024-03-29T10:35:03;96209.16;;;18.16;21.40
47556;BME280;33291;46.222;26.460;2024-03-29T10:37:30;96233.88;;;18.15;20.70
47556;BME280;33291;46.222;26.460;2024-03-29T10:40:00;96239.94;;;18.09;20.98
47556;BME280;33291;46.222;26.460;2024-03-29T10:42:28;96239.53;;;18.12;20.66
47556;BME280;33291;46.222;26.460;2024-03-29T10:44:56;96261.41;;;18.06;21.40
47556;BME280;33291;46.222;26.460;2024-03-29T10:47:23;96225.09;;;18.01;21.45
47556;BME280;33291;46.222;26.460;2024-03-29T10:49:50;96211.94;;;18.08;21.75
47556;BME280;33291;46.222;26.460;2024-03-29T10:52:21;96203.72;;;18.24;22.51
47556;BME280;33291;46.222;26.460;2024-03-29T10:54:47;96241.78;;;18.43;20.62
47556;BME280;33291;46.222;26.460;2024-03-29T10:57:33;96203.19;;;18.36;20.84
47556;BME280;33291;46.222;26.460;2024-03-29T11:00:03;96229.22;;;18.52;21.31
47556;BME280;33291;46.222;26.460;2024-03-29T11:05:12;96227.69;;;18.64;19.47
47556;BME280;33291;46.222;26.460;2024-03-29T11:07:40;96223.16;;;18.58;19.14
47556;BME280;33291;46.222;26.460;2024-03-29T11:10:13;96223.13;;;18.52;18.73
47556;BME280;33291;46.222;26.460;2024-03-29T11:12:50;96217.06;;;18.51;19.23
47556;BME280;33291;46.222;26.460;2024-03-29T11:15:32;96241.41;;;18.53;18.68
47556;BME280;33291;46.222;26.460;2024-03-29T11:18:01;96252.13;;;18.45;19.09
47556;BME280;33291;46.222;26.460;2024-03-29T11:20:28;96243.56;;;18.43;19.42
47556;BME280;33291;46.222;26.460;2024-03-29T11:23:09;96241.31;;;18.40;19.66
47556;BME280;33291;46.222;26.460;2024-03-29T11:25:43;96264.09;;;18.47;20.15
47556;BME280;33291;46.222;26.460;2024-03-29T11:28:13;96238.56;;;18.48;18.92
47556;BME280;33291;46.222;26.460;2024-03-29T11:30:43;96230.25;;;18.51;19.16
47556;BME280;33291;46.222;26.460;2024-03-29T11:33:28;96245.50;;;18.62;19.81
47556;BME280;33291;46.222;26.460;2024-03-29T11:35:54;96245.97;;;18.79;19.70
47556;BME280;33291;46.222;26.460;2024-03-29T11:38:20;96259.41;;;18.85;19.72
47556;BME280;33291;46.222;26.460;2024-03-29T11:41:00;96247.59;;;18.74;18.68
47556;BME280;33291;46.222;26.460;2024-03-29T11:43:26;96264.44;;;18.73;18.86
47556;BME280;33291;46.222;26.460;2024-03-29T11:45:54;96234.56;;;18.65;19.04
47556;BME280;33291;46.222;26.460;2024-03-29T11:48:25;96268.38;;;18.55;18.11
47556;BME280;33291;46.222;26.460;2024-03-29T11:50:52;96267.69;;;18.40;18.53
47556;BME280;33291;46.222;26.460;2024-03-29T11:53:19;96255.09;;;18.35;18.57
47556;BME280;33291;46.222;26.460;2024-03-29T11:55:44;96247.75;;;18.31;18.42
47556;BME280;33291;46.222;26.460;2024-03-29T11:58:10;96229.91;;;18.26;18.86
47556;BME280;33291;46.222;26.460;2024-03-29T12:00:38;96228.72;;;18.35;19.18
47556;BME280;33291;46.222;26.460;2024-03-29T12:03:05;96237.72;;;18.47;18.95
47556;BME280;33291;46.222;26.460;2024-03-29T12:05:30;96255.84;;;18.57;20.38
47556;BME280;33291;46.222;26.460;2024-03-29T12:07:57;96261.66;;;18.46;18.90
47556;BME280;33291;46.222;26.460;2024-03-29T12:10:29;96294.13;;;18.46;18.87
47556;BME280;33291;46.222;26.460;2024-03-29T12:12:58;96294.41;;;18.30;18.93
47556;BME280;33291;46.222;26.460;2024-03-29T12:15:24;96253.72;;;18.11;18.97
47556;BME280;33291;46.222;26.460;2024-03-29T12:17:57;96288.69;;;18.26;19.21
47556;BME280;33291;46.222;26.460;2024-03-29T12:20:23;96279.84;;;18.34;19.93
47556;BME280;33291;46.222;26.460;2024-03-29T12:22:49;96278.72;;;18.50;20.11
47556;BME280;33291;46.222;26.460;2024-03-29T12:25:15;96263.75;;;18.57;19.25
47556;BME280;33291;46.222;26.460;2024-03-29T12:27:44;96237.97;;;18.53;19.88
47556;BME280;33291;46.222;26.460;2024-03-29T12:30:12;96282.16;;;18.86;20.01
47556;BME280;33291;46.222;26.460;2024-03-29T12:32:39;96287.69;;;18.91;19.29
47556;BME280;33291;46.222;26.460;2024-03-29T12:35:12;96279.28;;;18.80;19.14
47556;BME280;33291;46.222;26.460;2024-03-29T12:37:49;96280.25;;;18.73;18.23
47556;BME280;33291;46.222;26.460;2024-03-29T12:40:16;96277.16;;;18.62;17.68
47556;BME280;33291;46.222;26.460;2024-03-29T12:42:50;96310.66;;;18.69;17.44
47556;BME280;33291;46.222;26.460;2024-03-29T12:45:17;96297.25;;;18.63;17.43
47556;BME280;33291;46.222;26.460;2024-03-29T12:47:47;96277.13;;;18.56;17.91
47556;BME280;33291;46.222;26.460;2024-03-29T12:50:20;96266.38;;;18.57;18.01
47556;BME280;33291;46.222;26.460;2024-03-29T12:52:49;96321.03;;;18.70;17.80
47556;BME280;33291;46.222;26.460;2024-03-29T12:55:15;96290.59;;;18.68;18.41
47556;BME280;33291;46.222;26.460;2024-03-29T12:57:44;96286.28;;;18.60;17.26
47556;BME280;33291;46.222;26.460;2024-03-29T13:00:10;96276.09;;;18.57;18.15